This is the latest recevied weather packets stored in our database for station/object KC3WWU. If no packets are shown the sender has not sent any weather packets the latest 10 day(s).
| Time | Temp. | Humidity | Pressure | Rain* | Wind** | Luminosity | Snow |
|---|---|---|---|---|---|---|---|
| 1777848778 | 11.11° C | 48% | 1011.3 hPa | 0 mm | - | 50 W/m² | - |
| 1777848475 | 11.11° C | 48% | 1011.2 hPa | 0 mm | - | 50 W/m² | - |
| 1777848172 | 11.67° C | 47% | 1011.1 hPa | 0 mm | - | 144 W/m² | - |
| 1777847870 | 11.11° C | 47% | 1011 hPa | 0 mm | - | 132 W/m² | - |
| 1777847567 | 11.11° C | 50% | 1011.2 hPa | 0 mm | - | 59 W/m² | - |
| 1777847263 | 11.67° C | 46% | 1011.2 hPa | 0 mm | - | 64 W/m² | - |
| 1777846961 | 12.22° C | 45% | 1011 hPa | 0 mm | - | 90 W/m² | - |
| 1777846660 | 11.67° C | 47% | 1011.4 hPa | 0 mm | - | 223 W/m² | - |
| 1777846357 | 11.67° C | 46% | 1011.1 hPa | 0 mm | - | 76 W/m² | - |
| 1777846053 | 11.67° C | 47% | 1011.2 hPa | 0 mm | - | 91 W/m² | - |
| 1777845750 | 11.11° C | 46% | 1011.1 hPa | 0 mm | - | 117 W/m² | - |
| 1777845447 | 12.22° C | 46% | 1011.1 hPa | 0 mm | - | 71 W/m² | - |
| 1777845144 | 12.78° C | 44% | 1011.2 hPa | 0 mm | - | 201 W/m² | - |
| 1777844842 | 12.22° C | 47% | 1011.3 hPa | 0 mm | - | 379 W/m² | - |
| 1777844539 | 11.67° C | 48% | 1011.2 hPa | 0 mm | - | 126 W/m² | - |
| 1777844237 | 11.67° C | 48% | 1011.2 hPa | 0 mm | - | 96 W/m² | - |
| 1777843934 | 11.67° C | 46% | 1011.3 hPa | 0 mm | - | 428 W/m² | - |
| 1777843631 | 11.67° C | 47% | 1011.3 hPa | 0 mm | - | 117 W/m² | - |
| 1777843328 | 11.67° C | 45% | 1011.1 hPa | 0 mm | - | 438 W/m² | - |
| 1777843026 | 12.22° C | 45% | 1011.3 hPa | 0 mm | - | 162 W/m² | - |
| 1777842721 | 12.22° C | 45% | 1011.2 hPa | 0 mm | - | 168 W/m² | - |
| 1777842417 | 11.67° C | 46% | 1011.1 hPa | 0 mm | - | 136 W/m² | - |
| 1777842115 | 11.67° C | 45% | 1011.1 hPa | 0 mm | - | 520 W/m² | - |
| 1777841810 | 11.67° C | 46% | 1011.3 hPa | 0 mm | - | 200 W/m² | - |
| 1777841506 | 12.22° C | 44% | 1011.3 hPa | 0 mm | - | 158 W/m² | - |
* Rain latest hour (hover to see other rain measurements)
** Current wind speed in m/s (hover to see current wind gust speed)